createdAt,value
2023-05-23T00:00:48.639Z,98415.44
2023-05-23T00:05:52.224Z,98411.09
2023-05-23T00:10:56.356Z,98413.50
2023-05-23T00:15:59.204Z,98417.38
2023-05-23T00:21:02.400Z,98421.13
2023-05-23T00:26:06.788Z,98425.19
2023-05-23T00:31:09.651Z,98431.75
2023-05-23T00:36:13.396Z,98428.16
2023-05-23T00:41:19.702Z,98413.06
2023-05-23T00:46:23.057Z,98418.59
2023-05-23T00:51:26.985Z,98419.94
2023-05-23T00:56:31.680Z,98422.63
2023-05-23T01:01:36.899Z,98421.25
2023-05-23T01:06:40.155Z,98431.97
2023-05-23T01:11:51.585Z,98426.09
2023-05-23T01:16:59.001Z,98435.13
2023-05-23T01:22:07.589Z,98427.38
2023-05-23T01:27:24.648Z,98435.91
2023-05-23T01:32:30.185Z,98429.78
2023-05-23T01:37:34.618Z,98435.78
2023-05-23T01:42:37.709Z,98439.97
2023-05-23T01:47:43.703Z,98438.97
2023-05-23T01:52:48.035Z,98438.75
2023-05-23T01:57:52.554Z,98433.69
2023-05-23T02:02:56.994Z,98424.06
2023-05-23T02:08:00.057Z,98430.72
2023-05-23T02:13:03.053Z,98427.66
2023-05-23T02:18:07.319Z,98427.06
2023-05-23T02:23:11.074Z,98437.03
2023-05-23T02:28:14.320Z,98439.81
2023-05-23T02:33:19.717Z,98450.38
2023-05-23T02:38:22.718Z,98449.75
2023-05-23T02:43:25.703Z,98463.78
2023-05-23T02:48:30.490Z,98472.03
2023-05-23T02:53:33.515Z,98470.47
2023-05-23T02:58:37.032Z,98476.91
2023-05-23T03:03:42.137Z,98479.91
2023-05-23T03:08:45.105Z,98477.22
2023-05-23T03:13:47.933Z,98477.44
2023-05-23T03:18:52.005Z,98478.56
2023-05-23T03:23:54.719Z,98483.13
2023-05-23T03:28:57.456Z,98482.94
2023-05-23T03:34:02.049Z,98482.44
2023-05-23T03:39:04.986Z,98481.13
2023-05-23T03:44:07.988Z,98477.75
2023-05-23T03:49:12.506Z,98482.25
2023-05-23T03:54:17.656Z,98490.19
2023-05-23T03:59:20.441Z,98493.69
2023-05-23T04:04:26.195Z,98500.22
2023-05-23T04:09:29.093Z,98498.16
2023-05-23T04:21:40.157Z,98520.91
2023-05-23T04:26:49.735Z,98518.09
2023-05-23T04:31:52.908Z,98513.78
2023-05-23T04:36:57.771Z,98527.16
2023-05-23T04:42:01.220Z,98533.81
2023-05-23T04:47:37.116Z,98517.09
2023-05-23T04:52:47.127Z,98525.75
2023-05-23T04:57:50.808Z,98529.66
2023-05-23T05:02:54.039Z,98540.31
2023-05-23T05:08:00.918Z,98543.31
2023-05-23T05:13:03.764Z,98539.69
2023-05-23T05:18:16.376Z,98556.81
2023-05-23T05:23:20.994Z,98553.97
2023-05-23T05:28:25.292Z,98557.59
2023-05-23T05:33:31.576Z,98560.72
2023-05-23T05:38:45.754Z,98567.84
2023-05-23T05:43:49.115Z,98582.72
2023-05-23T05:48:52.011Z,98578.34
2023-05-23T05:53:56.732Z,98574.88
2023-05-23T05:58:59.726Z,98577.50
2023-05-23T06:04:05.117Z,98579.50
2023-05-23T06:09:12.212Z,98585.41
2023-05-23T06:14:16.364Z,98586.94
2023-05-23T06:19:24.384Z,98580.19
2023-05-23T06:24:29.127Z,98596.91
2023-05-23T06:29:36.106Z,98599.91
2023-05-23T06:34:38.922Z,98588.41
2023-05-23T06:39:45.999Z,98597.16
2023-05-23T06:44:50.246Z,98593.53
2023-05-23T06:49:54.956Z,98599.16
2023-05-23T06:54:59.799Z,98607.97
2023-05-23T07:00:03.452Z,98597.84
2023-05-23T07:05:08.378Z,98610.69
2023-05-23T07:10:23.490Z,98604.78
2023-05-23T07:15:30.552Z,98614.22
2023-05-23T07:20:45.660Z,98610.53
2023-05-23T07:26:01.880Z,98616.53
2023-05-23T07:31:18.984Z,98617.28
2023-05-23T07:36:23.627Z,98620.25
2023-05-23T07:41:30.087Z,98616.28
2023-05-23T07:46:34.423Z,98623.13
2023-05-23T07:51:39.383Z,98628.63
2023-05-23T07:56:43.982Z,98635.44
2023-05-23T08:01:50.383Z,98638.75
2023-05-23T08:12:10.105Z,98641.38
2023-05-23T08:17:14.694Z,98647.25
2023-05-23T08:22:20.450Z,98642.41
2023-05-23T08:27:25.786Z,98645.22
2023-05-23T08:32:34.963Z,98644.84
2023-05-23T08:37:38.499Z,98648.47
2023-05-23T08:42:44.940Z,98651.91
2023-05-23T08:47:53.079Z,98655.69
2023-05-23T08:52:58.973Z,98655.13
2023-05-23T08:58:06.709Z,98660.38
2023-05-23T09:03:23.668Z,98665.88
2023-05-23T09:08:47.525Z,98673.97
2023-05-23T09:13:55.504Z,98676.97
2023-05-23T09:19:00.726Z,98677.81
2023-05-23T09:24:06.898Z,98676.56
2023-05-23T09:29:11.117Z,98682.81
2023-05-23T09:34:13.996Z,98683.06
2023-05-23T09:39:18.516Z,98687.25
2023-05-23T09:44:27.067Z,98681.41
2023-05-23T09:49:32.531Z,98681.91
2023-05-23T09:54:35.547Z,98681.25
2023-05-23T09:59:44.872Z,98693.19
2023-05-23T10:04:49.410Z,98706.06
2023-05-23T10:09:59.091Z,98717.19
2023-05-23T10:15:05.707Z,98708.47
2023-05-23T10:20:13.516Z,98732.72
2023-05-23T10:25:18.577Z,98726.22
2023-05-23T10:30:22.992Z,98721.34
2023-05-23T10:35:39.357Z,98724.81
2023-05-23T10:40:51.900Z,98731.00
2023-05-23T10:45:57.245Z,98734.78
2023-05-23T10:51:07.317Z,98737.34
2023-05-23T10:56:12.560Z,98736.75
2023-05-23T11:01:18.014Z,98741.94
2023-05-23T11:06:33.629Z,98743.66
2023-05-23T11:12:00.053Z,98734.84
2023-05-23T11:17:18.605Z,98742.75
2023-05-23T11:22:22.417Z,98747.25
2023-05-23T11:27:29.352Z,98759.25
2023-05-23T11:32:34.021Z,98756.09
2023-05-23T11:37:39.621Z,98759.97
2023-05-23T11:42:44.409Z,98754.00
2023-05-23T11:47:48.744Z,98741.59
2023-05-23T11:52:52.445Z,98757.34
2023-05-23T11:57:59.238Z,98754.66
2023-05-23T12:03:09.649Z,98755.81
2023-05-23T12:08:14.795Z,98754.59
2023-05-23T12:13:20.088Z,98759.25
2023-05-23T12:18:25.449Z,98772.84
2023-05-23T12:23:31.766Z,98774.56
2023-05-23T12:28:39.462Z,98768.84
2023-05-23T12:33:45.166Z,98779.25
2023-05-23T12:38:50.302Z,98779.84
2023-05-23T12:43:54.205Z,98791.34
2023-05-23T12:48:58.335Z,98786.81
2023-05-23T12:54:01.703Z,98797.69
2023-05-23T12:59:04.659Z,98800.00
2023-05-23T13:04:10.676Z,98794.69
2023-05-23T13:09:14.706Z,98794.13
2023-05-23T13:14:18.745Z,98794.94
2023-05-23T13:19:23.847Z,98795.88
2023-05-23T13:24:26.838Z,98802.91
2023-05-23T13:29:29.618Z,98803.59
2023-05-23T13:34:37.269Z,98799.13
2023-05-23T13:39:40.246Z,98809.63
2023-05-23T13:44:43.052Z,98803.88
2023-05-23T13:49:47.388Z,98806.31
2023-05-23T13:54:50.452Z,98799.47
2023-05-23T13:59:53.781Z,98792.63
2023-05-23T14:04:58.793Z,98789.47
2023-05-23T14:10:01.600Z,98793.38
2023-05-23T14:15:06.083Z,98804.72
2023-05-23T14:20:12.422Z,98800.28
2023-05-23T14:25:15.210Z,98810.13
2023-05-23T14:30:18.172Z,98803.84
2023-05-23T14:35:25.672Z,98807.56
2023-05-23T14:40:28.783Z,98811.88
2023-05-23T14:45:32.089Z,98820.44
2023-05-23T14:50:37.774Z,98816.72
2023-05-23T14:55:41.421Z,98817.28
2023-05-23T15:00:49.698Z,98805.94
2023-05-23T15:05:55.198Z,98806.69
2023-05-23T15:10:58.172Z,98805.16
2023-05-23T15:16:01.988Z,98805.50
2023-05-23T15:21:08.157Z,98814.81
2023-05-23T15:26:11.468Z,98813.69
2023-05-23T15:31:14.780Z,98823.69
2023-05-23T15:36:20.464Z,98813.97
2023-05-23T15:41:23.317Z,98806.44
2023-05-23T15:46:27.970Z,98812.06
2023-05-23T15:51:32.764Z,98822.13
2023-05-23T15:56:36.616Z,98820.41
2023-05-23T16:01:39.550Z,98815.69
2023-05-23T16:06:44.854Z,98819.56
2023-05-23T16:11:48.495Z,98821.00
2023-05-23T16:16:51.357Z,98825.41
2023-05-23T16:21:56.647Z,98815.34
2023-05-23T16:27:00.653Z,98804.22
2023-05-23T16:32:03.969Z,98819.09
2023-05-23T16:37:09.025Z,98809.13
2023-05-23T16:42:11.876Z,98815.66
2023-05-23T16:47:14.728Z,98807.81
2023-05-23T16:52:19.924Z,98806.25
2023-05-23T16:57:22.928Z,98801.75
2023-05-23T17:02:26.615Z,98802.38
2023-05-23T17:07:32.189Z,98796.31
2023-05-23T17:12:36.010Z,98794.78
2023-05-23T17:17:39.542Z,98795.34
2023-05-23T17:22:46.379Z,98795.88
2023-05-23T17:27:51.963Z,98796.75
2023-05-23T17:32:55.298Z,98803.72
2023-05-23T17:38:00.693Z,98812.16
2023-05-23T17:43:04.906Z,98795.81
2023-05-23T17:48:07.805Z,98811.81
2023-05-23T17:53:14.995Z,98809.09
2023-05-23T17:58:20.347Z,98805.69
2023-05-23T18:03:24.314Z,98811.28
2023-05-23T18:08:28.537Z,98816.16
2023-05-23T18:13:31.397Z,98820.97
2023-05-23T18:18:34.611Z,98825.72
2023-05-23T18:23:39.166Z,98820.16
2023-05-23T18:28:41.947Z,98824.69
2023-05-23T18:33:47.536Z,98832.38
2023-05-23T18:38:52.053Z,98829.06
2023-05-23T18:43:55.319Z,98829.03
2023-05-23T18:48:58.999Z,98832.59
2023-05-23T18:54:04.156Z,98837.06
2023-05-23T18:59:07.224Z,98837.44
2023-05-23T19:04:11.166Z,98841.91
2023-05-23T19:09:15.514Z,98846.41
2023-05-23T19:14:18.433Z,98865.81
2023-05-23T19:19:21.570Z,98874.84
2023-05-23T19:24:25.817Z,98866.25
2023-05-23T19:29:28.784Z,98872.28
2023-05-23T19:34:31.629Z,98870.56
2023-05-23T19:39:36.071Z,98887.88
2023-05-23T19:44:38.899Z,98883.91
2023-05-23T19:49:43.821Z,98900.16
2023-05-23T19:54:49.760Z,98902.81
2023-05-23T19:59:52.721Z,98913.75
2023-05-23T20:04:56.049Z,98911.28
2023-05-23T20:10:00.210Z,98919.53
2023-05-23T20:15:05.251Z,98921.44
2023-05-23T20:20:09.429Z,98927.69
2023-05-23T20:25:14.124Z,98920.44
2023-05-23T20:30:16.995Z,98929.91
2023-05-23T20:35:20.151Z,98926.59
2023-05-23T20:40:26.068Z,98926.72
2023-05-23T20:45:29.099Z,98932.88
2023-05-23T20:50:33.795Z,98936.78
2023-05-23T20:55:38.078Z,98946.78
2023-05-23T21:00:41.547Z,98939.38
2023-05-23T21:05:46.598Z,98944.09
2023-05-23T21:10:53.385Z,98952.94
2023-05-23T21:15:57.418Z,98956.22
2023-05-23T21:21:00.324Z,98959.00
2023-05-23T21:26:05.229Z,98961.31
2023-05-23T21:31:09.180Z,98968.94
2023-05-23T21:36:12.108Z,98959.84
2023-05-23T21:41:17.133Z,98967.56
2023-05-23T21:46:20.085Z,98968.88
2023-05-23T21:51:22.880Z,98971.22
2023-05-23T21:56:28.209Z,98973.00
2023-05-23T22:01:32.014Z,98964.28
2023-05-23T22:06:34.963Z,98974.19
2023-05-23T22:11:39.245Z,98977.13
2023-05-23T22:16:42.171Z,98975.59
2023-05-23T22:21:45.210Z,98981.84
2023-05-23T22:26:49.556Z,98982.88
2023-05-23T22:31:52.470Z,98981.00
2023-05-23T22:36:57.020Z,98983.81
2023-05-23T22:42:03.300Z,98987.25
2023-05-23T22:47:06.448Z,98996.88
2023-05-23T22:52:09.440Z,99001.13
2023-05-23T22:57:13.681Z,98994.34
2023-05-23T23:02:16.664Z,98987.53
2023-05-23T23:07:20.525Z,98998.16
2023-05-23T23:12:24.756Z,98981.56
2023-05-23T23:17:27.562Z,98980.78
2023-05-23T23:22:30.479Z,98981.53
2023-05-23T23:27:34.799Z,98982.50
2023-05-23T23:32:37.694Z,98990.31
2023-05-23T23:37:40.595Z,98991.91
2023-05-23T23:42:44.801Z,98985.97
2023-05-23T23:47:47.733Z,98988.31
2023-05-23T23:52:50.606Z,98995.63
2023-05-23T23:57:54.826Z,98999.75
